MDT,Max TemperatureF,Mean TemperatureF,Min TemperatureF,Max Dew PointF,MeanDew PointF,Min DewpointF,Max Humidity, Mean Humidity, Min Humidity, Max Sea Level PressureIn, Mean Sea Level PressureIn, Min Sea Level PressureIn, Max VisibilityMiles, Mean VisibilityMiles, Min VisibilityMiles, Max Wind SpeedMPH, Mean Wind SpeedMPH, Max Gust SpeedMPH,PrecipitationIn, CloudCover, Events, WindDirDegrees
2013-5-1,51,43,35,36,29,16,92,58,24,30.45,30.12,29.94,10,9,5,25,12,31,0.22,6,Rain,303
2013-5-2,55,41,27,23,17,10,75,47,18,30.64,30.51,30.43,10,10,10,15,6,23,0.00,0,,319
2013-5-3,67,47,27,25,19,11,75,43,11,30.44,30.16,29.91,10,10,10,14,4,18,0.00,0,,243
2013-5-4,71,52,32,29,22,15,69,41,12,29.94,29.85,29.76,10,10,10,26,7,36,0.00,0,,322
2013-5-5,71,57,42,32,27,18,62,38,14,29.88,29.83,29.79,10,10,10,25,7,31,0.00,0,,243
2013-5-6,67,57,46,46,36,28,100,63,26,30.06,29.90,29.80,10,10,8,30,7,39,0.13,6,Rain,300
2013-5-7,61,52,42,45,41,34,100,69,37,30.07,29.98,29.88,10,10,2,23,3,29,0.19,5,Rain-Thunderstorm,182
2013-5-8,50,44,38,43,40,37,100,90,80,30.09,30.03,29.93,10,10,5,18,5,23,0.20,6,Rain,234
2013-5-9,66,54,41,43,39,33,96,64,31,30.11,30.04,29.95,10,10,10,22,5,25,0.01,3,Rain,99
2013-5-10,69,53,37,38,34,28,92,57,22,30.20,30.12,30.07,10,10,10,17,3,24,0.00,1,,123
2013-5-11,74,56,38,37,32,25,85,51,17,30.31,30.22,30.14,10,10,10,22,3,26,0.00,1,,183
2013-5-12,78,61,44,40,36,28,76,47,18,30.25,30.14,30.05,10,10,10,13,3,16,0.00,2,,143
2013-5-13,83,64,44,42,36,29,76,45,14,30.19,30.08,29.94,10,10,10,15,4,20,0.00,0,,278
2013-5-14,85,65,45,42,37,32,76,47,17,30.00,29.91,29.81,10,10,10,30,8,36,0.00,0,,105
2013-5-15,75,62,49,47,42,39,68,49,29,30.05,29.87,29.75,10,10,10,32,7,46,0.01,2,Rain-Thunderstorm,107
2013-5-16,82,63,43,46,38,30,89,52,15,30.00,29.80,29.68,10,10,10,25,7,35,0.00,0,,198
2013-5-17,82,64,46,37,26,12,60,35,9,29.93,29.74,29.69,10,10,10,25,6,32,0.00,0,,223
2013-5-18,66,56,45,46,36,28,86,60,34,29.97,29.87,29.77,10,10,2,30,8,38,0.10,6,Rain-Thunderstorm,319
2013-5-19,64,52,40,41,36,27,93,59,25,29.93,29.90,29.83,10,10,10,24,4,30,T,6,,284
2013-5-20,63,53,43,40,37,33,83,60,36,30.02,29.95,29.91,10,10,9,28,7,33,T,7,Rain,321
2013-5-21,71,58,45,37,34,31,71,48,24,30.04,29.91,29.79,10,10,10,16,6,20,0.00,4,,34
2013-5-22,83,64,44,36,28,18,65,38,10,29.81,29.71,29.60,10,10,10,23,8,29,0.00,0,,180
2013-5-23,85,70,54,32,19,9,31,19,6,29.91,29.65,29.57,10,10,10,33,13,43,0.00,0,,175
2013-5-24,83,67,50,28,18,9,32,20,8,30.02,29.80,29.64,10,10,10,29,9,38,0.00,0,,222
2013-5-25,84,63,42,31,21,10,49,28,6,29.91,29.83,29.75,10,10,10,25,8,31,0.00,0,,250
2013-5-26,83,64,44,32,22,13,53,30,7,29.89,29.80,29.72,10,10,10,28,8,39,0.00,0,,242
2013-5-27,80,61,42,29,21,17,43,27,10,29.84,29.74,29.65,10,10,10,26,8,32,0.00,0,,265
2013-5-28,77,60,42,39,28,22,55,34,13,29.70,29.61,29.50,10,10,8,32,10,41,0.02,1,,259
2013-5-29,63,54,45,44,42,36,100,74,47,29.84,29.73,29.64,10,10,10,21,5,28,0.15,6,Rain,93
2013-5-30,71,57,42,41,30,20,89,52,15,29.88,29.79,29.71,10,10,10,28,9,39,0.00,5,,269
2013-5-31,70,57,43,33,22,10,60,35,10,30.04,29.91,29.83,10,10,10,23,9,33,0.00,2,,299